createdAt,value
2019-01-20T00:02:18.893Z,14.70
2019-01-20T00:04:45.666Z,16.20
2019-01-20T00:07:12.411Z,12.13
2019-01-20T00:09:39.191Z,15.20
2019-01-20T00:12:05.901Z,12.10
2019-01-20T00:14:32.640Z,12.73
2019-01-20T00:16:59.371Z,19.80
2019-01-20T00:19:26.149Z,13.60
2019-01-20T00:21:53.015Z,15.60
2019-01-20T00:24:19.882Z,14.20
2019-01-20T00:26:46.769Z,14.50
2019-01-20T00:29:13.546Z,19.80
2019-01-20T00:31:40.269Z,17.60
2019-01-20T00:34:07.203Z,17.67
2019-01-20T00:36:37.579Z,15.60
2019-01-20T00:39:07.001Z,19.60
2019-01-20T00:41:33.739Z,13.68
2019-01-20T00:44:00.700Z,14.63
2019-01-20T00:46:28.026Z,15.60
2019-01-20T00:48:54.881Z,15.20
2019-01-20T00:51:21.800Z,13.77
2019-01-20T00:53:48.560Z,14.50
2019-01-20T00:56:15.302Z,14.53
2019-01-20T00:58:42.101Z,16.00
2019-01-20T01:01:09.293Z,16.80
2019-01-20T01:03:36.052Z,15.13
2019-01-20T01:06:02.965Z,17.27
2019-01-20T01:08:29.719Z,16.80
2019-01-20T01:10:56.472Z,18.23
2019-01-20T01:13:23.194Z,16.10
2019-01-20T01:15:49.927Z,13.83
2019-01-20T01:18:16.794Z,15.60
2019-01-20T01:20:43.571Z,15.70
2019-01-20T01:23:10.308Z,15.90
2019-01-20T01:25:37.195Z,17.03
2019-01-20T01:28:03.922Z,13.90
2019-01-20T01:30:30.653Z,15.47
2019-01-20T01:32:57.363Z,15.30
2019-01-20T01:35:24.233Z,17.60
2019-01-20T01:37:52.854Z,15.63
2019-01-20T01:40:19.583Z,19.00
2019-01-20T01:42:46.296Z,16.23
2019-01-20T01:45:15.366Z,20.17
2019-01-20T01:47:42.053Z,14.40
2019-01-20T01:50:10.156Z,16.63
2019-01-20T01:52:36.911Z,15.33
2019-01-20T01:55:04.273Z,20.83
2019-01-20T01:57:31.016Z,17.00
2019-01-20T01:59:57.778Z,17.00
2019-01-20T02:02:24.722Z,18.00
2019-01-20T02:04:51.461Z,16.00
2019-01-20T02:07:18.485Z,19.60
2019-01-20T02:09:45.509Z,17.30
2019-01-20T02:12:12.552Z,18.77
2019-01-20T02:14:39.361Z,16.13
2019-01-20T02:17:06.145Z,16.37
2019-01-20T02:19:37.885Z,19.17
2019-01-20T02:22:05.075Z,18.03
2019-01-20T02:24:32.162Z,16.17
2019-01-20T02:26:58.944Z,16.07
2019-01-20T02:29:25.747Z,22.83
2019-01-20T02:31:52.492Z,20.40
2019-01-20T02:34:19.623Z,18.20
2019-01-20T02:36:46.583Z,19.07
2019-01-20T02:39:14.625Z,17.00
2019-01-20T02:41:41.404Z,16.87
2019-01-20T02:44:08.129Z,17.17
2019-01-20T02:46:34.860Z,25.37
2019-01-20T02:49:01.563Z,19.60
2019-01-20T02:51:28.311Z,17.47
2019-01-20T02:53:55.818Z,21.73
2019-01-20T02:56:22.654Z,18.70
2019-01-20T02:58:51.373Z,19.73
2019-01-20T03:01:18.099Z,19.20
2019-01-20T03:03:44.926Z,19.90
2019-01-20T03:06:11.687Z,26.40
2019-01-20T03:08:38.506Z,22.20
2019-01-20T03:11:05.234Z,18.37
2019-01-20T03:13:32.001Z,21.83
2019-01-20T03:15:58.823Z,18.40
2019-01-20T03:18:25.679Z,17.47
2019-01-20T03:20:53.415Z,19.67
2019-01-20T03:23:20.194Z,19.90
2019-01-20T03:25:47.097Z,21.80
2019-01-20T03:28:13.878Z,16.90
2019-01-20T03:30:40.733Z,22.83
2019-01-20T03:33:07.858Z,23.07
2019-01-20T03:35:34.670Z,20.53
2019-01-20T03:38:01.465Z,19.67
2019-01-20T03:40:28.170Z,18.13
2019-01-20T03:42:55.022Z,16.33
2019-01-20T03:45:21.774Z,19.73
2019-01-20T03:47:48.630Z,22.10
2019-01-20T03:50:15.677Z,17.93
2019-01-20T03:52:42.414Z,15.83
2019-01-20T03:55:10.699Z,20.20
2019-01-20T03:57:37.721Z,15.10
2019-01-20T04:00:07.147Z,17.73
2019-01-20T04:02:34.083Z,16.70
2019-01-20T04:05:00.861Z,20.77
2019-01-20T04:07:28.256Z,18.43
2019-01-20T04:09:55.011Z,18.50
2019-01-20T04:12:22.252Z,15.60
2019-01-20T04:14:48.978Z,15.90
2019-01-20T04:17:15.719Z,18.33
2019-01-20T04:19:42.484Z,18.20
2019-01-20T04:22:09.637Z,17.43
2019-01-20T04:24:36.436Z,15.93
2019-01-20T04:27:03.217Z,19.00
2019-01-20T04:29:29.979Z,16.83
2019-01-20T04:31:56.695Z,16.10
2019-01-20T04:34:23.486Z,16.67
2019-01-20T04:36:50.207Z,17.30
2019-01-20T04:39:17.000Z,20.83
2019-01-20T04:41:43.800Z,18.17
2019-01-20T04:44:10.878Z,17.00
2019-01-20T04:46:37.853Z,19.43
2019-01-20T04:49:07.236Z,18.27
2019-01-20T04:51:34.109Z,20.87
2019-01-20T04:54:01.099Z,24.00
2019-01-20T04:56:27.885Z,23.50
2019-01-20T04:58:54.650Z,20.00
2019-01-20T05:01:21.361Z,18.97
2019-01-20T05:03:48.128Z,16.82
2019-01-20T05:06:14.891Z,18.07
2019-01-20T05:08:41.638Z,18.53
2019-01-20T05:11:08.604Z,18.93
2019-01-20T05:13:35.336Z,18.10
2019-01-20T05:16:02.258Z,17.73
2019-01-20T05:18:28.977Z,16.53
2019-01-20T05:20:55.672Z,17.40
2019-01-20T05:23:22.953Z,16.57
2019-01-20T05:25:49.812Z,16.62
2019-01-20T05:28:18.033Z,17.00
2019-01-20T05:30:44.757Z,18.00
2019-01-20T05:33:11.509Z,17.70
2019-01-20T05:35:38.333Z,13.33
2019-01-20T05:38:05.364Z,15.80
2019-01-20T05:40:40.447Z,17.47
2019-01-20T05:43:07.252Z,16.23
2019-01-20T05:45:34.086Z,15.18
2019-01-20T05:48:00.863Z,18.77
2019-01-20T05:50:27.729Z,18.37
2019-01-20T05:52:54.525Z,17.85
2019-01-20T05:55:21.618Z,16.87
2019-01-20T05:57:48.562Z,16.57
2019-01-20T06:00:27.049Z,16.43
2019-01-20T06:02:54.425Z,15.70
2019-01-20T06:05:21.337Z,17.87
2019-01-20T06:07:48.092Z,17.30
2019-01-20T06:10:14.882Z,18.40
2019-01-20T06:12:45.048Z,17.75
2019-01-20T06:15:14.154Z,17.13
2019-01-20T06:17:40.999Z,18.57
2019-01-20T06:20:08.023Z,16.07
2019-01-20T06:22:34.789Z,15.28
2019-01-20T06:25:01.531Z,18.73
2019-01-20T06:27:28.294Z,16.02
2019-01-20T06:29:55.424Z,17.65
2019-01-20T06:32:22.142Z,18.57
2019-01-20T06:34:48.986Z,16.75
2019-01-20T06:37:16.155Z,17.57
2019-01-20T06:39:43.035Z,15.23
2019-01-20T06:42:09.840Z,16.97
2019-01-20T06:44:36.989Z,17.35
2019-01-20T06:47:03.762Z,15.95
2019-01-20T06:49:30.496Z,15.50
2019-01-20T06:51:57.214Z,16.90
2019-01-20T06:54:24.489Z,17.50
2019-01-20T06:56:54.495Z,17.15
2019-01-20T06:59:21.532Z,15.68
2019-01-20T07:01:48.425Z,21.45
2019-01-20T07:04:15.200Z,15.65
2019-01-20T07:06:42.007Z,15.83
2019-01-20T07:09:08.714Z,15.85
2019-01-20T07:11:35.469Z,15.50
2019-01-20T07:14:03.000Z,17.07
2019-01-20T07:16:29.738Z,14.33
2019-01-20T07:18:56.457Z,17.12
2019-01-20T07:21:23.265Z,19.45
2019-01-20T07:23:50.470Z,18.27
2019-01-20T07:26:17.291Z,17.23
2019-01-20T07:28:44.040Z,16.50
2019-01-20T07:31:10.793Z,16.45
2019-01-20T07:33:37.566Z,16.30
2019-01-20T07:36:04.410Z,17.23
2019-01-20T07:38:31.303Z,15.38
2019-01-20T07:40:58.051Z,19.27
2019-01-20T07:43:24.951Z,17.27
2019-01-20T07:45:52.147Z,16.25
2019-01-20T07:48:18.997Z,20.65
2019-01-20T07:50:45.746Z,16.25
2019-01-20T07:53:12.635Z,21.15
2019-01-20T07:55:39.393Z,14.53
2019-01-20T07:58:06.160Z,18.00
2019-01-20T08:00:33.089Z,16.02
2019-01-20T08:02:59.919Z,17.57
2019-01-20T08:05:27.048Z,16.57
2019-01-20T08:07:53.892Z,14.80
2019-01-20T08:10:23.036Z,42.33
2019-01-20T08:12:54.287Z,18.73
2019-01-20T08:15:21.284Z,17.40
2019-01-20T08:17:48.297Z,19.12
2019-01-20T08:20:16.886Z,19.73
2019-01-20T08:22:43.893Z,19.05
2019-01-20T08:25:14.513Z,17.10
2019-01-20T08:27:42.044Z,20.55
2019-01-20T08:30:11.607Z,20.32
2019-01-20T08:32:38.495Z,17.60
2019-01-20T08:35:06.280Z,16.95
2019-01-20T08:37:34.417Z,17.17
2019-01-20T08:40:01.527Z,17.82
2019-01-20T08:42:28.503Z,20.45
2019-01-20T08:44:55.424Z,18.75
2019-01-20T08:47:44.696Z,19.67
2019-01-20T08:50:16.487Z,17.40
2019-01-20T08:52:43.343Z,18.77
2019-01-20T08:55:10.419Z,20.37
2019-01-20T08:57:44.363Z,18.65
2019-01-20T09:00:16.428Z,17.57
2019-01-20T09:02:44.051Z,19.77
2019-01-20T09:05:11.626Z,19.00
2019-01-20T09:07:38.465Z,15.93
2019-01-20T09:10:25.716Z,18.90
2019-01-20T09:12:53.362Z,18.70
2019-01-20T09:15:20.143Z,16.30
2019-01-20T09:17:46.991Z,20.23
2019-01-20T09:20:13.955Z,19.57
2019-01-20T09:22:40.704Z,20.00
2019-01-20T09:25:08.192Z,19.85
2019-01-20T09:27:37.772Z,22.62
2019-01-20T09:30:07.892Z,23.65
2019-01-20T09:32:34.624Z,21.82
2019-01-20T09:35:01.748Z,24.52
2019-01-20T09:37:28.593Z,22.93
2019-01-20T09:39:55.452Z,21.73
2019-01-20T09:42:22.469Z,23.12
2019-01-20T09:44:49.566Z,25.27
2019-01-20T09:47:16.382Z,24.43
2019-01-20T09:49:43.181Z,19.13
2019-01-20T09:52:09.936Z,22.50
2019-01-20T09:54:36.749Z,23.57
2019-01-20T09:57:03.705Z,20.57
2019-01-20T09:59:31.195Z,22.73
2019-01-20T10:01:57.978Z,23.20
2019-01-20T10:04:25.096Z,25.85
2019-01-20T10:06:52.140Z,21.20
2019-01-20T10:09:19.121Z,26.30
2019-01-20T10:11:45.906Z,28.07
2019-01-20T10:14:12.657Z,25.00
2019-01-20T10:16:39.806Z,25.13
2019-01-20T10:19:06.654Z,22.90
2019-01-20T10:21:33.511Z,25.75
2019-01-20T10:24:00.336Z,24.85
2019-01-20T10:26:27.200Z,26.20
2019-01-20T10:28:53.936Z,27.53
2019-01-20T10:31:20.954Z,24.00
2019-01-20T10:33:48.151Z,24.50
2019-01-20T10:36:15.081Z,23.27
2019-01-20T10:38:42.055Z,23.33
2019-01-20T10:41:08.968Z,24.77
2019-01-20T10:43:36.414Z,23.37
2019-01-20T10:46:03.355Z,26.43
2019-01-20T10:48:30.624Z,22.47
2019-01-20T10:50:57.666Z,21.97
2019-01-20T10:53:24.753Z,21.82
2019-01-20T10:55:51.747Z,23.07
2019-01-20T10:58:18.637Z,22.13
2019-01-20T11:00:45.641Z,21.53
2019-01-20T11:03:12.403Z,24.17
2019-01-20T11:05:39.861Z,24.13
2019-01-20T11:08:07.079Z,25.93
2019-01-20T11:10:34.433Z,25.43
2019-01-20T11:13:01.453Z,23.30
2019-01-20T11:15:28.429Z,24.10
2019-01-20T11:17:55.475Z,21.63
2019-01-20T11:20:22.558Z,24.27
2019-01-20T11:22:49.451Z,27.97
2019-01-20T11:25:19.508Z,23.67
2019-01-20T11:27:48.498Z,28.03
2019-01-20T11:30:15.357Z,23.13
2019-01-20T11:32:42.551Z,21.03
2019-01-20T11:35:11.832Z,21.67
2019-01-20T11:37:38.824Z,21.90
2019-01-20T11:40:07.949Z,21.97
2019-01-20T11:42:34.750Z,20.80
2019-01-20T11:45:01.738Z,17.67
2019-01-20T11:47:28.667Z,21.53
2019-01-20T11:49:56.535Z,20.37
2019-01-20T11:52:23.412Z,19.73
2019-01-20T11:54:50.142Z,19.87
2019-01-20T11:57:17.051Z,19.67
2019-01-20T11:59:44.041Z,21.10
2019-01-20T12:02:10.888Z,23.00
2019-01-20T12:04:37.839Z,19.50
2019-01-20T12:07:04.629Z,21.17
2019-01-20T12:09:31.371Z,20.00
2019-01-20T12:11:58.136Z,20.23
2019-01-20T12:14:24.878Z,17.83
2019-01-20T12:16:51.715Z,21.13
2019-01-20T12:19:18.712Z,18.50
2019-01-20T12:21:45.661Z,17.73
2019-01-20T12:24:12.650Z,18.43
2019-01-20T12:26:39.480Z,18.23
2019-01-20T12:29:06.493Z,19.50
2019-01-20T12:31:33.450Z,18.80
2019-01-20T12:34:00.759Z,23.47
2019-01-20T12:36:27.646Z,19.93
2019-01-20T12:38:54.638Z,18.70
2019-01-20T12:41:21.565Z,20.47
2019-01-20T12:43:48.908Z,18.57
2019-01-20T12:46:15.778Z,21.13
2019-01-20T12:48:42.700Z,21.97
2019-01-20T12:51:12.430Z,22.27
2019-01-20T12:53:39.034Z,19.13
2019-01-20T12:56:05.761Z,20.43
2019-01-20T12:58:32.674Z,19.43
2019-01-20T13:00:59.773Z,22.50
2019-01-20T13:03:26.723Z,20.90
2019-01-20T13:05:53.459Z,19.50
2019-01-20T13:08:20.220Z,22.17
2019-01-20T13:10:47.060Z,24.70
2019-01-20T13:13:13.811Z,23.00
2019-01-20T13:15:40.990Z,20.40
2019-01-20T13:18:07.771Z,19.90
2019-01-20T13:20:34.589Z,20.67
2019-01-20T13:23:01.595Z,22.47
2019-01-20T13:25:29.917Z,20.20
2019-01-20T13:27:56.768Z,20.90
2019-01-20T13:30:25.327Z,21.80
2019-01-20T13:32:52.473Z,19.87
2019-01-20T13:35:20.156Z,17.60
2019-01-20T13:37:49.551Z,19.80
2019-01-20T13:40:23.106Z,21.70
2019-01-20T13:42:49.990Z,20.53
2019-01-20T13:45:19.610Z,21.23
2019-01-20T13:47:48.832Z,21.50
2019-01-20T13:50:16.249Z,22.27
2019-01-20T13:52:43.107Z,19.17
2019-01-20T13:55:10.293Z,24.53
2019-01-20T13:57:37.141Z,22.70
2019-01-20T14:00:07.692Z,24.90
2019-01-20T14:02:34.685Z,22.00
2019-01-20T14:05:01.716Z,22.10
2019-01-20T14:07:28.461Z,21.60
2019-01-20T14:09:55.171Z,21.77
2019-01-20T14:12:22.100Z,22.23
2019-01-20T14:14:53.889Z,23.53
2019-01-20T14:17:18.795Z,22.83
2019-01-20T14:19:45.648Z,22.17
2019-01-20T14:22:12.680Z,21.93
2019-01-20T14:24:39.607Z,19.80
2019-01-20T14:27:06.695Z,24.80
2019-01-20T14:29:33.754Z,23.17
2019-01-20T14:32:00.579Z,20.53
2019-01-20T14:34:27.464Z,21.60
2019-01-20T14:36:54.268Z,25.47
2019-01-20T14:39:21.412Z,21.40
2019-01-20T14:41:48.261Z,21.70
2019-01-20T14:44:15.062Z,25.23
2019-01-20T14:46:41.887Z,19.80
2019-01-20T14:49:08.660Z,23.87
2019-01-20T14:51:35.410Z,20.20
2019-01-20T14:54:02.209Z,22.57
2019-01-20T14:56:29.182Z,20.17
2019-01-20T14:58:55.982Z,21.77
2019-01-20T15:01:22.768Z,22.00
2019-01-20T15:03:49.634Z,23.00
2019-01-20T15:06:16.594Z,23.07
2019-01-20T15:08:44.844Z,21.13
2019-01-20T15:11:11.617Z,21.63
2019-01-20T15:13:38.666Z,18.90
2019-01-20T15:16:05.404Z,22.70
2019-01-20T15:18:32.370Z,20.23
2019-01-20T15:20:59.392Z,20.53
2019-01-20T15:23:26.164Z,23.40
2019-01-20T15:25:52.970Z,24.03
2019-01-20T15:28:20.941Z,27.33
2019-01-20T15:30:48.275Z,21.70
2019-01-20T15:33:15.062Z,24.17
2019-01-20T15:35:41.805Z,20.70
2019-01-20T15:38:08.574Z,22.80
2019-01-20T15:40:35.589Z,21.17
2019-01-20T15:43:02.765Z,21.50
2019-01-20T15:45:29.551Z,21.23
2019-01-20T15:47:56.525Z,20.10
2019-01-20T15:50:27.868Z,24.00
2019-01-20T15:52:54.625Z,22.90
2019-01-20T15:55:21.557Z,22.20
2019-01-20T15:57:48.313Z,19.67
2019-01-20T16:00:20.511Z,26.60
2019-01-20T16:02:47.442Z,21.13
2019-01-20T16:05:14.227Z,22.13
2019-01-20T16:07:41.355Z,23.63
2019-01-20T16:10:10.661Z,20.63
2019-01-20T16:12:37.500Z,20.47
2019-01-20T16:15:09.524Z,22.67
2019-01-20T16:17:36.277Z,22.50
2019-01-20T16:20:04.008Z,22.13
2019-01-20T16:22:31.202Z,22.73
2019-01-20T16:24:58.088Z,22.70
2019-01-20T16:27:25.077Z,22.80
2019-01-20T16:29:54.699Z,23.97
2019-01-20T16:32:21.604Z,24.23
2019-01-20T16:34:48.553Z,24.57
2019-01-20T16:37:15.443Z,23.47
2019-01-20T16:39:45.691Z,24.70
2019-01-20T16:42:11.392Z,22.70
2019-01-20T16:44:38.260Z,25.47
2019-01-20T16:47:05.047Z,25.93
2019-01-20T16:49:32.021Z,25.80
2019-01-20T16:51:58.905Z,25.27
2019-01-20T16:54:25.797Z,24.87
2019-01-20T16:56:52.562Z,25.57
2019-01-20T16:59:19.332Z,23.77
2019-01-20T17:01:46.641Z,26.50
2019-01-20T17:04:13.499Z,25.80
2019-01-20T17:06:40.471Z,26.07
2019-01-20T17:09:08.197Z,22.80
2019-01-20T17:11:35.102Z,23.73
2019-01-20T17:14:01.959Z,27.90
2019-01-20T17:16:28.993Z,25.87
2019-01-20T17:18:55.938Z,31.37
2019-01-20T17:21:22.711Z,26.17
2019-01-20T17:23:49.466Z,26.63
2019-01-20T17:26:16.679Z,25.37
2019-01-20T17:28:44.276Z,25.57
2019-01-20T17:31:13.659Z,26.57
2019-01-20T17:33:40.689Z,26.10
2019-01-20T17:36:07.461Z,25.60
2019-01-20T17:38:34.555Z,30.13
2019-01-20T17:41:02.329Z,28.10
2019-01-20T17:43:29.127Z,26.00
2019-01-20T17:45:56.116Z,24.03
2019-01-20T17:48:23.085Z,25.37
2019-01-20T17:50:50.234Z,25.93
2019-01-20T17:53:17.193Z,26.53
2019-01-20T17:55:44.225Z,26.47
2019-01-20T17:58:11.469Z,25.70
2019-01-20T18:00:42.688Z,24.33
2019-01-20T18:03:09.749Z,27.43
2019-01-20T18:05:36.809Z,29.37
2019-01-20T18:08:04.178Z,28.63
2019-01-20T18:10:30.944Z,26.77
2019-01-20T18:12:58.240Z,24.70
2019-01-20T18:15:25.290Z,26.93
2019-01-20T18:17:52.473Z,24.20
2019-01-20T18:20:23.827Z,24.47
2019-01-20T18:22:50.838Z,22.67
2019-01-20T18:25:18.088Z,28.60
2019-01-20T18:27:45.232Z,27.37
2019-01-20T18:30:15.100Z,26.00
2019-01-20T18:32:43.091Z,32.53
2019-01-20T18:35:09.830Z,27.47
2019-01-20T18:37:36.603Z,25.40
2019-01-20T18:40:06.309Z,30.00
2019-01-20T18:42:33.362Z,32.60
2019-01-20T18:45:00.521Z,27.70
2019-01-20T18:47:27.499Z,24.97
2019-01-20T18:49:54.725Z,24.30
2019-01-20T18:52:22.178Z,24.77
2019-01-20T18:54:48.914Z,25.47
2019-01-20T18:57:16.009Z,22.37
2019-01-20T18:59:43.022Z,22.80
2019-01-20T19:02:09.799Z,25.10
2019-01-20T19:04:36.791Z,51.87
2019-01-20T19:07:03.680Z,25.37
2019-01-20T19:09:31.073Z,22.63
2019-01-20T19:11:57.848Z,25.47
2019-01-20T19:14:24.721Z,23.13
2019-01-20T19:16:51.515Z,23.63
2019-01-20T19:19:18.669Z,20.53
2019-01-20T19:21:45.538Z,21.00
2019-01-20T19:24:12.453Z,20.43
2019-01-20T19:26:39.363Z,25.33
2019-01-20T19:29:08.790Z,21.97
2019-01-20T19:31:35.860Z,22.53
2019-01-20T19:34:02.920Z,21.27
2019-01-20T19:36:29.620Z,20.17
2019-01-20T19:38:56.556Z,23.40
2019-01-20T19:41:23.539Z,24.43
2019-01-20T19:43:50.312Z,22.37
2019-01-20T19:46:17.327Z,19.33
2019-01-20T19:48:44.069Z,20.30
2019-01-20T19:51:10.918Z,22.87
2019-01-20T19:53:37.835Z,20.80
2019-01-20T19:56:05.006Z,19.47
2019-01-20T19:58:31.801Z,22.50
2019-01-20T20:00:58.585Z,22.43
2019-01-20T20:03:25.720Z,22.03
2019-01-20T20:05:52.660Z,21.77
2019-01-20T20:08:20.643Z,26.80
2019-01-20T20:10:47.430Z,21.43
2019-01-20T20:13:14.421Z,23.67
2019-01-20T20:15:44.459Z,19.03
2019-01-20T20:18:11.317Z,21.53
2019-01-20T20:20:38.247Z,21.30
2019-01-20T20:23:05.204Z,19.87
2019-01-20T20:25:32.001Z,18.87
2019-01-20T20:27:58.801Z,21.13
2019-01-20T20:30:43.763Z,22.10
2019-01-20T20:33:10.773Z,22.17
2019-01-20T20:35:37.694Z,25.55
2019-01-20T20:38:04.741Z,22.80
2019-01-20T20:40:31.576Z,21.70
2019-01-20T20:42:58.447Z,19.80
2019-01-20T20:45:25.470Z,21.80
2019-01-20T20:47:52.377Z,23.07
2019-01-20T20:50:19.508Z,26.63
2019-01-20T20:52:46.931Z,27.20
2019-01-20T20:55:13.926Z,20.20
2019-01-20T20:57:40.936Z,19.63
2019-01-20T21:00:16.999Z,18.97
2019-01-20T21:02:44.419Z,20.13
2019-01-20T21:05:11.206Z,18.53
2019-01-20T21:07:38.318Z,20.30
2019-01-20T21:10:08.556Z,18.23
2019-01-20T21:12:35.393Z,19.20
2019-01-20T21:15:03.525Z,21.87
2019-01-20T21:17:30.724Z,22.03
2019-01-20T21:19:58.172Z,21.93
2019-01-20T21:22:25.203Z,22.80
2019-01-20T21:24:52.547Z,24.37
2019-01-20T21:27:19.551Z,23.77
2019-01-20T21:29:46.414Z,26.33
2019-01-20T21:32:13.258Z,21.47
2019-01-20T21:34:40.289Z,22.93
2019-01-20T21:37:07.312Z,21.90
2019-01-20T21:39:34.251Z,21.02
2019-01-20T21:42:01.286Z,21.50
2019-01-20T21:44:28.489Z,20.43
2019-01-20T21:46:55.270Z,17.93
2019-01-20T21:49:22.028Z,23.13
2019-01-20T21:51:48.967Z,23.80
2019-01-20T21:54:15.918Z,25.80
2019-01-20T21:56:42.797Z,29.00
2019-01-20T21:59:09.721Z,28.37
2019-01-20T22:01:37.040Z,21.43
2019-01-20T22:04:04.250Z,23.10
2019-01-20T22:06:33.327Z,26.93
2019-01-20T22:09:00.300Z,23.98
2019-01-20T22:11:27.520Z,21.13
2019-01-20T22:13:54.591Z,21.37
2019-01-20T22:16:21.401Z,18.57
2019-01-20T22:18:48.310Z,19.20
2019-01-20T22:21:15.248Z,19.70
2019-01-20T22:23:42.204Z,18.30
2019-01-20T22:26:09.136Z,20.15
2019-01-20T22:28:36.667Z,17.32
2019-01-20T22:31:03.491Z,17.30
2019-01-20T22:33:30.435Z,19.07
2019-01-20T22:35:57.355Z,21.57
2019-01-20T22:38:26.434Z,18.47
2019-01-20T22:40:53.263Z,19.12
2019-01-20T22:43:20.182Z,23.10
2019-01-20T22:45:47.036Z,24.47
2019-01-20T22:48:13.988Z,23.15
2019-01-20T22:50:40.790Z,21.27
2019-01-20T22:53:07.691Z,21.57
2019-01-20T22:55:34.857Z,22.23
2019-01-20T22:58:03.214Z,22.70
2019-01-20T23:01:05.972Z,23.30
2019-01-20T23:03:33.242Z,23.38
2019-01-20T23:05:59.994Z,22.95
2019-01-20T23:08:27.219Z,21.93
2019-01-20T23:10:54.093Z,20.77
2019-01-20T23:13:21.039Z,20.72
2019-01-20T23:15:47.785Z,22.37
2019-01-20T23:18:14.620Z,28.90
2019-01-20T23:20:41.367Z,20.68
2019-01-20T23:23:08.225Z,22.43
2019-01-20T23:25:35.188Z,20.60
2019-01-20T23:28:02.501Z,18.77
2019-01-20T23:30:32.006Z,21.93
2019-01-20T23:32:58.752Z,21.45
2019-01-20T23:35:25.500Z,20.72
2019-01-20T23:37:52.325Z,18.00
2019-01-20T23:40:19.084Z,16.93
2019-01-20T23:42:45.845Z,23.67
2019-01-20T23:45:13.145Z,19.15
2019-01-20T23:47:40.370Z,20.70
2019-01-20T23:50:08.437Z,21.85
2019-01-20T23:52:35.386Z,20.82
2019-01-20T23:55:02.299Z,16.52
2019-01-20T23:57:29.148Z,16.35
2019-01-20T23:59:57.829Z,21.35
